sensor_id;sensor_type;location;lat;lon;timestamp;pressure;altitude;pressure_sealevel;temperature;humidity
32761;BME280;19126;47.472;7.850;2023-02-11T00:02:19;98585.69;;;-5.42;100.00
32761;BME280;19126;47.472;7.850;2023-02-11T00:04:52;98583.13;;;-5.42;100.00
32761;BME280;19126;47.472;7.850;2023-02-11T00:07:20;98578.88;;;-5.43;100.00
32761;BME280;19126;47.472;7.850;2023-02-11T00:09:47;98584.00;;;-5.45;100.00
32761;BME280;19126;47.472;7.850;2023-02-11T00:12:16;98582.41;;;-5.50;100.00
32761;BME280;19126;47.472;7.850;2023-02-11T00:14:47;98583.19;;;-5.47;100.00
32761;BME280;19126;47.472;7.850;2023-02-11T00:17:15;98579.84;;;-5.50;100.00
32761;BME280;19126;47.472;7.850;2023-02-11T00:19:47;98579.97;;;-5.58;100.00
32761;BME280;19126;47.472;7.850;2023-02-11T00:22:15;98581.78;;;-5.65;100.00
32761;BME280;19126;47.472;7.850;2023-02-11T00:24:57;98574.13;;;-5.66;100.00
32761;BME280;19126;47.472;7.850;2023-02-11T00:27:35;98577.53;;;-5.66;100.00
32761;BME280;19126;47.472;7.850;2023-02-11T00:30:13;98568.28;;;-5.75;100.00
32761;BME280;19126;47.472;7.850;2023-02-11T00:32:44;98569.97;;;-5.72;100.00
32761;BME280;19126;47.472;7.850;2023-02-11T00:35:13;98564.91;;;-5.77;100.00
32761;BME280;19126;47.472;7.850;2023-02-11T00:37:47;98572.53;;;-5.74;100.00
32761;BME280;19126;47.472;7.850;2023-02-11T00:40:15;98574.22;;;-5.71;100.00
32761;BME280;19126;47.472;7.850;2023-02-11T00:42:47;98567.34;;;-5.70;99.63
32761;BME280;19126;47.472;7.850;2023-02-11T00:45:15;98567.25;;;-5.64;99.06
32761;BME280;19126;47.472;7.850;2023-02-11T00:47:51;98560.41;;;-5.62;98.62
32761;BME280;19126;47.472;7.850;2023-02-11T00:50:21;98556.97;;;-5.61;98.23
32761;BME280;19126;47.472;7.850;2023-02-11T00:52:48;98543.41;;;-5.66;98.51
32761;BME280;19126;47.472;7.850;2023-02-11T00:55:16;98541.75;;;-5.70;99.36
32761;BME280;19126;47.472;7.850;2023-02-11T00:57:49;98540.88;;;-5.69;100.00
32761;BME280;19126;47.472;7.850;2023-02-11T01:00:19;98535.91;;;-5.77;99.58
32761;BME280;19126;47.472;7.850;2023-02-11T01:02:46;98530.06;;;-5.85;99.44
32761;BME280;19126;47.472;7.850;2023-02-11T01:05:17;98539.34;;;-5.78;98.97
32761;BME280;19126;47.472;7.850;2023-02-11T01:07:53;98546.94;;;-5.74;98.29
32761;BME280;19126;47.472;7.850;2023-02-11T01:10:24;98535.00;;;-5.73;98.87
32761;BME280;19126;47.472;7.850;2023-02-11T01:12:51;98535.00;;;-5.75;98.98
32761;BME280;19126;47.472;7.850;2023-02-11T01:15:19;98529.78;;;-5.68;98.70
32761;BME280;19126;47.472;7.850;2023-02-11T01:17:51;98530.59;;;-5.66;98.03
32761;BME280;19126;47.472;7.850;2023-02-11T01:20:20;98532.28;;;-5.65;98.30
32761;BME280;19126;47.472;7.850;2023-02-11T01:22:53;98518.75;;;-5.72;98.77
32761;BME280;19126;47.472;7.850;2023-02-11T01:25:22;98523.81;;;-5.69;98.05
32761;BME280;19126;47.472;7.850;2023-02-11T01:27:54;98527.38;;;-5.76;98.39
32761;BME280;19126;47.472;7.850;2023-02-11T01:30:28;98518.09;;;-5.83;98.17
32761;BME280;19126;47.472;7.850;2023-02-11T01:32:59;98510.41;;;-5.83;97.43
32761;BME280;19126;47.472;7.850;2023-02-11T01:35:31;98502.75;;;-5.85;97.31
32761;BME280;19126;47.472;7.850;2023-02-11T01:38:13;98504.38;;;-5.79;97.36
32761;BME280;19126;47.472;7.850;2023-02-11T01:40:46;98501.78;;;-5.78;96.41
32761;BME280;19126;47.472;7.850;2023-02-11T01:51:05;98471.50;;;-6.01;98.82
32761;BME280;19126;47.472;7.850;2023-02-11T01:53:45;98479.81;;;-5.90;98.01
32761;BME280;19126;47.472;7.850;2023-02-11T01:56:31;98474.66;;;-5.88;98.04
32761;BME280;19126;47.472;7.850;2023-02-11T01:59:21;98466.97;;;-5.88;98.84
